Time;durP1;ratioP1;P1;durP2;ratioP2;P2;SDS_P1;SDS_P2;PMS_P1;PMS_P2;Temp;Humidity;BMP_temperature;BMP_pressure;BME280_temperature;BME280_humidity;BME280_pressure;Samples;Min_cycle;Max_cycle;Signal;HPM_P1;HPM_P2
2023/09/14 00:00:52;;;;;;;14.73;3.35;;;13.00;99.90;;;;;;5101631;28;20076;-83
2023/09/14 00:03:19;;;;;;;15.93;3.22;;;12.90;99.90;;;;;;5100405;28;20058;-83
2023/09/14 00:05:49;;;;;;;17.75;4.15;;;12.90;99.90;;;;;;5103561;27;20528;-83
2023/09/14 00:08:16;;;;;;;14.50;3.17;;;12.90;99.90;;;;;;5097972;28;20028;-86
2023/09/14 00:10:42;;;;;;;11.52;3.03;;;12.90;99.90;;;;;;5111307;27;20400;-83
2023/09/14 00:13:09;;;;;;;15.60;3.40;;;12.90;99.90;;;;;;5101324;28;20027;-84
2023/09/14 00:15:35;;;;;;;23.60;3.53;;;12.90;99.90;;;;;;5100476;28;20051;-84
2023/09/14 00:18:01;;;;;;;17.95;3.75;;;12.90;99.90;;;;;;5100415;28;20020;-84
2023/09/14 00:20:30;;;;;;;27.83;4.88;;;12.90;99.90;;;;;;5100107;28;20044;-82
2023/09/14 00:22:56;;;;;;;24.08;3.90;;;13.00;99.90;;;;;;5103462;28;20487;-84
2023/09/14 00:25:23;;;;;;;9.40;3.08;;;12.90;99.90;;;;;;5099606;28;20365;-88
2023/09/14 00:27:50;;;;;;;15.57;3.45;;;12.90;99.90;;;;;;5103835;28;20046;-85
2023/09/14 00:30:17;;;;;;;22.48;4.00;;;12.90;99.90;;;;;;5101879;27;20046;-84
2023/09/14 00:32:43;;;;;;;15.73;3.28;;;12.90;99.90;;;;;;5099251;28;20035;-84
2023/09/14 00:35:12;;;;;;;13.13;3.03;;;12.90;99.90;;;;;;5104414;28;20043;-84
2023/09/14 00:37:39;;;;;;;27.65;3.67;;;12.90;99.90;;;;;;5099407;28;20031;-83
2023/09/14 00:40:10;;;;;;;8.68;3.05;;;12.90;99.90;;;;;;5104115;28;20302;-83
2023/09/14 00:42:44;;;;;;;12.10;2.92;;;12.90;99.90;;;;;;5101934;27;20039;-83
2023/09/14 00:45:14;;;;;;;16.73;2.88;;;12.90;99.90;;;;;;5103863;28;20045;-82
2023/09/14 00:47:46;;;;;;;20.08;3.22;;;12.90;99.90;;;;;;5102458;28;20051;-82
2023/09/14 00:50:16;;;;;;;14.52;3.35;;;12.80;99.90;;;;;;5101894;28;20561;-83
2023/09/14 00:52:57;;;;;;;18.98;3.53;;;12.80;99.90;;;;;;5103212;28;20457;-86
2023/09/14 00:55:23;;;;;;;11.68;3.22;;;12.80;99.90;;;;;;5100797;28;20040;-84
2023/09/14 00:57:50;;;;;;;15.85;3.90;;;12.80;99.90;;;;;;5101666;28;20054;-82
2023/09/14 01:00:22;;;;;;;13.43;2.92;;;12.80;99.90;;;;;;5099262;28;20429;-82
2023/09/14 01:02:52;;;;;;;16.52;3.40;;;12.70;99.90;;;;;;5105365;28;20032;-81
2023/09/14 01:05:18;;;;;;;18.50;3.42;;;12.70;99.90;;;;;;5103905;28;20041;-80
2023/09/14 01:07:44;;;;;;;20.02;3.72;;;12.70;99.90;;;;;;5102692;28;20024;-82
2023/09/14 01:10:10;;;;;;;14.27;3.30;;;12.70;99.90;;;;;;5098466;28;20039;-81
2023/09/14 01:12:36;;;;;;;14.45;3.47;;;12.60;99.90;;;;;;5102438;28;20020;-82
2023/09/14 01:15:20;;;;;;;17.08;3.03;;;12.60;99.90;;;;;;5098671;28;20034;-80
2023/09/14 01:17:50;;;;;;;10.98;2.92;;;12.60;99.90;;;;;;5106653;27;20050;-81
2023/09/14 01:20:53;;;;;;;10.10;3.22;;;12.60;99.90;;;;;;5100057;28;20405;-81
2023/09/14 01:23:33;;;;;;;14.77;3.00;;;12.60;99.90;;;;;;5100104;28;20027;-81
2023/09/14 01:26:00;;;;;;;21.10;3.80;;;12.60;99.90;;;;;;5099858;28;20081;-82
2023/09/14 01:28:25;;;;;;;11.40;3.00;;;12.50;99.90;;;;;;5103517;28;20028;-81
2023/09/14 01:30:51;;;;;;;11.18;3.05;;;12.50;99.90;;;;;;5102361;28;20391;-84
2023/09/14 01:33:17;;;;;;;9.50;2.85;;;12.50;99.90;;;;;;5106427;28;20039;-82
2023/09/14 01:36:03;;;;;;;17.02;3.45;;;12.50;99.90;;;;;;5110482;27;20437;-81
2023/09/14 01:38:30;;;;;;;16.73;2.55;;;12.40;99.90;;;;;;5097033;28;20112;-85
2023/09/14 01:40:58;;;;;;;10.98;2.70;;;12.40;99.90;;;;;;5103012;28;20051;-81
2023/09/14 01:43:25;;;;;;;13.85;3.05;;;12.40;99.90;;;;;;5100210;28;20488;-81
2023/09/14 01:45:52;;;;;;;16.55;3.40;;;12.30;99.90;;;;;;5106394;28;20024;-81
2023/09/14 01:48:19;;;;;;;9.38;2.17;;;12.40;99.90;;;;;;5104905;28;20265;-81
2023/09/14 01:50:46;;;;;;;20.77;3.22;;;12.30;99.90;;;;;;5100310;28;20051;-82
2023/09/14 01:53:11;;;;;;;15.68;2.70;;;12.30;99.90;;;;;;5101828;27;20380;-81
2023/09/14 01:55:37;;;;;;;14.15;2.53;;;12.30;99.90;;;;;;5097426;28;20034;-82
2023/09/14 01:58:03;;;;;;;25.38;4.57;;;12.40;99.90;;;;;;5100760;28;20027;-82
2023/09/14 02:00:29;;;;;;;16.98;3.30;;;12.30;99.90;;;;;;5101273;28;20023;-85
2023/09/14 02:02:55;;;;;;;26.55;3.65;;;12.30;99.90;;;;;;5102266;28;20077;-82
2023/09/14 02:05:22;;;;;;;20.67;3.75;;;12.40;99.90;;;;;;5103894;28;20027;-86
2023/09/14 02:07:48;;;;;;;18.13;3.40;;;12.40;99.90;;;;;;5102598;28;20020;-82
2023/09/14 02:10:14;;;;;;;20.02;4.15;;;12.40;99.90;;;;;;5102444;27;20134;-83
2023/09/14 02:12:40;;;;;;;18.30;3.72;;;12.50;99.90;;;;;;5100599;28;20024;-82
2023/09/14 02:15:08;;;;;;;17.85;4.43;;;12.40;99.90;;;;;;5101247;28;20035;-82
2023/09/14 02:17:34;;;;;;;23.70;3.65;;;12.40;99.90;;;;;;5103135;28;20106;-82
2023/09/14 02:20:00;;;;;;;34.85;5.60;;;12.40;99.90;;;;;;5099582;27;20135;-83
2023/09/14 02:22:25;;;;;;;12.60;2.92;;;12.40;99.90;;;;;;5101898;28;20109;-81
2023/09/14 02:24:52;;;;;;;11.10;3.15;;;12.30;99.90;;;;;;5104026;28;20024;-87
2023/09/14 02:27:18;;;;;;;34.00;4.95;;;12.40;99.90;;;;;;5106026;28;20447;-82
2023/09/14 02:29:43;;;;;;;20.90;3.70;;;12.40;99.90;;;;;;5102726;28;20035;-83
2023/09/14 02:32:09;;;;;;;12.27;2.97;;;12.40;99.90;;;;;;5101956;28;20020;-82
2023/09/14 02:34:35;;;;;;;14.43;3.75;;;12.40;99.90;;;;;;5101539;28;20089;-82
2023/09/14 02:37:02;;;;;;;17.02;3.08;;;12.40;99.90;;;;;;5102879;28;20034;-83
2023/09/14 02:39:28;;;;;;;11.15;3.03;;;12.40;99.90;;;;;;5102802;28;20027;-85
2023/09/14 02:41:53;;;;;;;22.98;3.45;;;12.40;99.90;;;;;;5103817;28;20496;-83
2023/09/14 02:44:19;;;;;;;25.75;3.90;;;12.40;99.90;;;;;;5111093;27;20034;-83
2023/09/14 02:46:44;;;;;;;16.80;3.95;;;12.50;99.90;;;;;;5105572;28;20030;-82
2023/09/14 02:49:10;;;;;;;27.10;4.10;;;12.40;99.90;;;;;;5107941;28;20024;-83
2023/09/14 02:51:36;;;;;;;15.52;3.17;;;12.40;99.90;;;;;;5106682;28;20051;-83
2023/09/14 02:54:02;;;;;;;15.57;3.03;;;12.40;99.90;;;;;;5105457;28;20020;-83
2023/09/14 02:56:29;;;;;;;21.08;3.90;;;12.40;99.90;;;;;;5103048;28;20020;-86
2023/09/14 02:58:54;;;;;;;19.35;2.65;;;12.30;99.90;;;;;;5105762;28;20036;-82
2023/09/14 03:01:20;;;;;;;19.17;3.47;;;12.30;99.90;;;;;;5105505;27;20213;-82
2023/09/14 03:03:47;;;;;;;18.75;4.13;;;12.30;99.90;;;;;;5107495;28;20031;-82
2023/09/14 03:06:13;;;;;;;13.05;3.47;;;12.30;99.90;;;;;;5108457;28;20023;-83
2023/09/14 03:08:38;;;;;;;21.23;3.50;;;12.20;99.90;;;;;;5106281;28;20473;-83
2023/09/14 03:11:04;;;;;;;22.35;2.95;;;12.20;99.90;;;;;;5101163;28;20398;-83
2023/09/14 03:13:30;;;;;;;23.23;4.45;;;12.20;99.90;;;;;;5104970;28;20102;-83
2023/09/14 03:15:59;;;;;;;17.48;3.20;;;12.20;99.90;;;;;;5101285;28;20055;-82
2023/09/14 03:18:25;;;;;;;10.70;2.25;;;12.20;99.90;;;;;;5101382;28;20426;-82
2023/09/14 03:20:55;;;;;;;15.13;2.97;;;12.20;99.90;;;;;;5104915;28;20052;-82
2023/09/14 03:23:23;;;;;;;18.48;2.92;;;12.20;99.90;;;;;;5105710;27;20024;-88
2023/09/14 03:25:49;;;;;;;17.48;3.08;;;12.10;99.90;;;;;;5101532;28;20110;-86
2023/09/14 03:28:15;;;;;;;5.82;2.10;;;12.20;99.90;;;;;;5103175;28;20110;-83
2023/09/14 03:30:41;;;;;;;9.90;3.03;;;12.10;99.90;;;;;;5102359;28;20035;-82
2023/09/14 03:33:08;;;;;;;21.17;3.15;;;12.20;99.90;;;;;;5105957;28;20438;-87
2023/09/14 03:35:34;;;;;;;11.32;2.70;;;12.20;99.90;;;;;;5107400;27;20081;-81
2023/09/14 03:38:02;;;;;;;21.10;3.78;;;12.20;99.90;;;;;;5087618;28;20023;-83
2023/09/14 03:40:28;;;;;;;12.55;3.08;;;12.20;99.90;;;;;;5103809;28;20504;-83
2023/09/14 03:42:53;;;;;;;9.15;2.88;;;12.20;99.90;;;;;;5103492;27;20114;-81
2023/09/14 03:45:19;;;;;;;10.73;2.90;;;12.20;99.90;;;;;;5103168;28;20112;-82
2023/09/14 03:47:45;;;;;;;7.72;2.20;;;12.10;99.90;;;;;;5104939;27;20040;-82
2023/09/14 03:50:12;;;;;;;17.02;2.95;;;12.10;99.90;;;;;;5103930;28;20426;-82
2023/09/14 03:53:10;;;;;;;15.10;2.83;;;12.00;99.90;;;;;;5103017;27;20039;-85
2023/09/14 03:55:36;;;;;;;14.80;3.10;;;12.00;99.90;;;;;;5099105;28;20043;-83
2023/09/14 03:58:02;;;;;;;17.73;3.08;;;12.00;99.90;;;;;;5100354;28;20511;-88
2023/09/14 04:00:28;;;;;;;23.15;4.72;;;11.90;99.90;;;;;;5107430;28;20118;-83
2023/09/14 04:02:54;;;;;;;10.98;2.63;;;11.90;99.90;;;;;;5105317;28;20106;-83
2023/09/14 04:05:20;;;;;;;22.20;2.92;;;11.90;99.90;;;;;;5107229;28;20023;-83
2023/09/14 04:07:46;;;;;;;13.25;3.17;;;11.80;99.90;;;;;;5104529;28;20023;-83
2023/09/14 04:10:12;;;;;;;9.73;3.83;;;11.80;99.90;;;;;;5103836;28;20369;-83
2023/09/14 04:12:42;;;;;;;21.55;3.75;;;11.80;99.90;;;;;;5105981;28;20460;-85
2023/09/14 04:15:08;;;;;;;14.93;2.40;;;11.80;99.90;;;;;;5101997;28;20023;-84
2023/09/14 04:17:35;;;;;;;12.30;2.60;;;11.80;99.90;;;;;;5106157;28;20038;-82
2023/09/14 04:20:11;;;;;;;13.00;2.55;;;11.80;99.90;;;;;;5097802;27;20054;-83
2023/09/14 04:22:38;;;;;;;12.65;2.85;;;11.80;99.90;;;;;;5105679;28;20035;-83
2023/09/14 04:25:06;;;;;;;8.77;2.40;;;11.70;99.90;;;;;;5104171;28;20061;-82
2023/09/14 04:27:33;;;;;;;9.93;2.30;;;11.70;99.90;;;;;;5103201;28;20468;-87
2023/09/14 04:29:58;;;;;;;10.10;3.13;;;11.70;99.90;;;;;;5107613;28;20034;-83
2023/09/14 04:32:24;;;;;;;12.70;2.60;;;11.60;99.90;;;;;;5106304;28;20028;-82
2023/09/14 04:34:50;;;;;;;18.67;2.83;;;11.60;99.90;;;;;;5106323;28;20054;-82
2023/09/14 04:37:16;;;;;;;13.07;2.55;;;11.50;99.90;;;;;;5102237;28;20027;-82
2023/09/14 04:39:42;;;;;;;16.05;2.75;;;11.40;99.90;;;;;;5100697;28;20103;-83
2023/09/14 04:42:09;;;;;;;7.78;2.63;;;11.40;99.90;;;;;;5102993;28;20552;-82
2023/09/14 04:44:34;;;;;;;13.57;2.30;;;11.40;99.90;;;;;;5104111;28;20023;-83
2023/09/14 04:47:00;;;;;;;12.43;2.78;;;11.40;99.90;;;;;;5102573;27;20024;-84
2023/09/14 04:49:28;;;;;;;11.57;2.47;;;11.40;99.90;;;;;;5102646;28;20035;-82
2023/09/14 04:51:54;;;;;;;12.00;2.63;;;11.40;99.90;;;;;;5101095;28;20062;-82
2023/09/14 04:54:19;;;;;;;16.98;2.60;;;11.30;99.90;;;;;;5103560;28;20074;-83
2023/09/14 04:57:23;;;;;;;12.70;2.83;;;11.30;99.90;;;;;;5100959;27;20544;-84
2023/09/14 04:59:49;;;;;;;16.77;2.95;;;11.30;99.90;;;;;;5100270;28;20090;-82
2023/09/14 05:02:15;;;;;;;8.43;2.60;;;11.40;99.90;;;;;;5102939;28;20035;-86
2023/09/14 05:04:40;;;;;;;8.82;2.33;;;11.50;99.90;;;;;;5104202;28;20019;-82
2023/09/14 05:07:06;;;;;;;15.77;2.72;;;11.50;99.90;;;;;;5102480;28;20468;-83
2023/09/14 05:09:32;;;;;;;11.63;3.10;;;11.50;99.90;;;;;;5103196;28;20030;-83
2023/09/14 05:11:57;;;;;;;13.60;3.08;;;11.50;99.90;;;;;;5105533;28;20047;-84
2023/09/14 05:14:23;;;;;;;20.70;3.72;;;11.50;99.90;;;;;;5099096;28;20036;-85
2023/09/14 05:16:51;;;;;;;13.98;2.78;;;11.60;99.90;;;;;;5103117;28;20395;-84
2023/09/14 05:19:17;;;;;;;19.17;4.90;;;11.60;99.90;;;;;;5094741;28;20131;-83
2023/09/14 05:21:43;;;;;;;18.95;2.72;;;11.60;99.90;;;;;;5103564;28;20184;-86
2023/09/14 05:24:08;;;;;;;15.25;2.50;;;11.70;99.90;;;;;;5105979;28;20050;-83
2023/09/14 05:26:34;;;;;;;16.38;2.40;;;11.70;99.90;;;;;;5098113;28;20103;-83
2023/09/14 05:29:00;;;;;;;14.82;3.00;;;11.60;99.90;;;;;;5103256;28;20027;-86
2023/09/14 05:31:25;;;;;;;14.18;2.70;;;11.70;99.90;;;;;;5083914;28;20041;-82
2023/09/14 05:33:51;;;;;;;16.48;3.03;;;11.70;99.90;;;;;;5103430;28;20023;-83
2023/09/14 05:36:16;;;;;;;17.02;3.15;;;11.80;99.90;;;;;;5104074;28;20016;-82
2023/09/14 05:38:42;;;;;;;14.35;2.92;;;11.80;99.90;;;;;;5101512;28;20081;-82
2023/09/14 05:41:08;;;;;;;20.58;3.83;;;11.80;99.90;;;;;;5100812;28;20043;-82
2023/09/14 05:43:33;;;;;;;19.08;2.53;;;11.90;99.90;;;;;;5102267;28;20059;-83
2023/09/14 05:46:01;;;;;;;11.18;2.63;;;11.90;99.90;;;;;;5101911;28;20032;-84
2023/09/14 05:48:28;;;;;;;17.38;2.75;;;11.90;99.90;;;;;;5097690;28;20019;-86
2023/09/14 05:50:59;;;;;;;19.80;3.53;;;12.00;99.90;;;;;;5103015;28;20028;-88
2023/09/14 05:53:25;;;;;;;13.65;2.45;;;12.00;99.90;;;;;;5100347;28;20050;-83
2023/09/14 05:55:53;;;;;;;14.27;3.38;;;12.00;99.90;;;;;;5104545;28;20411;-83
2023/09/14 05:58:19;;;;;;;11.35;2.17;;;12.10;99.90;;;;;;5104536;28;20484;-83
2023/09/14 06:00:45;;;;;;;12.50;2.53;;;12.10;99.90;;;;;;5101967;28;20042;-84
2023/09/14 06:03:11;;;;;;;17.15;3.20;;;12.20;99.90;;;;;;5101864;28;20027;-84
2023/09/14 06:05:36;;;;;;;12.15;2.63;;;12.20;99.90;;;;;;5101444;28;20035;-83
2023/09/14 06:08:02;;;;;;;15.20;2.70;;;12.20;99.90;;;;;;5104240;28;20076;-83
2023/09/14 06:10:28;;;;;;;17.08;2.75;;;12.30;99.90;;;;;;5104832;28;20503;-85
2023/09/14 06:12:53;;;;;;;15.10;2.60;;;12.30;99.90;;;;;;5103118;28;20031;-84
2023/09/14 06:15:19;;;;;;;16.23;3.53;;;12.40;99.90;;;;;;5097843;28;20224;-83
2023/09/14 06:17:47;;;;;;;14.95;3.08;;;12.40;99.90;;;;;;5101497;28;20134;-86
2023/09/14 06:20:13;;;;;;;22.60;3.22;;;12.40;99.90;;;;;;5102512;28;20273;-85
2023/09/14 06:22:40;;;;;;;13.00;2.55;;;12.50;99.90;;;;;;5101662;28;20115;-84
2023/09/14 06:25:05;;;;;;;8.70;2.55;;;12.50;99.90;;;;;;5103744;28;20468;-83
2023/09/14 06:27:31;;;;;;;11.68;2.70;;;12.50;99.90;;;;;;5103098;28;20220;-83
2023/09/14 06:29:57;;;;;;;11.32;2.13;;;12.50;99.90;;;;;;5101930;28;20036;-82
2023/09/14 06:32:22;;;;;;;12.40;2.80;;;12.50;99.90;;;;;;5101522;28;20038;-85
2023/09/14 06:34:48;;;;;;;9.68;2.80;;;12.50;99.90;;;;;;5102621;28;20024;-83
2023/09/14 06:37:14;;;;;;;12.13;2.78;;;12.60;99.90;;;;;;5101190;28;20023;-85
2023/09/14 06:39:39;;;;;;;9.57;2.30;;;12.60;99.90;;;;;;5100743;28;20015;-84
2023/09/14 06:42:05;;;;;;;12.63;2.75;;;12.60;99.90;;;;;;5102541;28;20042;-83
2023/09/14 06:44:31;;;;;;;10.65;2.30;;;12.70;99.90;;;;;;5100864;28;20057;-84
2023/09/14 06:46:56;;;;;;;11.77;2.42;;;12.70;99.90;;;;;;5075808;28;20108;-83
2023/09/14 06:49:25;;;;;;;17.58;4.05;;;12.80;99.90;;;;;;5094533;28;20015;-88
2023/09/14 06:51:51;;;;;;;9.52;2.45;;;12.80;99.90;;;;;;5095355;28;20036;-83
2023/09/14 06:54:19;;;;;;;13.57;3.15;;;12.80;99.90;;;;;;5101601;28;20091;-83
2023/09/14 06:56:45;;;;;;;11.63;2.55;;;12.90;99.90;;;;;;5102157;28;20028;-88
2023/09/14 06:59:10;;;;;;;16.40;2.97;;;12.90;99.90;;;;;;5100032;28;20476;-83
2023/09/14 07:01:36;;;;;;;18.80;4.38;;;12.90;99.90;;;;;;5102729;28;20044;-83
2023/09/14 07:04:02;;;;;;;11.10;2.72;;;13.00;99.90;;;;;;5104160;28;20027;-84
2023/09/14 07:06:30;;;;;;;12.52;2.53;;;13.10;99.90;;;;;;5099180;28;20038;-88
2023/09/14 07:08:57;;;;;;;10.93;2.67;;;13.10;99.90;;;;;;5093424;28;20034;-89
2023/09/14 07:11:27;;;;;;;14.23;3.58;;;13.10;99.90;;;;;;5103641;28;20480;-89
2023/09/14 07:13:52;;;;;;;18.20;2.67;;;13.10;99.90;;;;;;5102737;28;20024;-83
2023/09/14 07:16:18;;;;;;;16.52;3.70;;;13.20;99.90;;;;;;5096713;28;20027;-82
2023/09/14 07:18:44;;;;;;;16.05;3.80;;;13.20;99.90;;;;;;5099535;28;20035;-86
2023/09/14 07:21:13;;;;;;;9.43;2.25;;;13.20;99.90;;;;;;5097997;28;20527;-83
2023/09/14 07:23:39;;;;;;;16.08;3.10;;;13.30;99.90;;;;;;5100837;28;20156;-83
2023/09/14 07:26:07;;;;;;;14.02;2.80;;;13.30;99.90;;;;;;5106371;27;20115;-83
2023/09/14 07:28:33;;;;;;;10.13;2.33;;;13.30;99.90;;;;;;5105508;28;20136;-83
2023/09/14 07:31:04;;;;;;;12.68;2.55;;;13.40;99.90;;;;;;5085633;28;20043;-83
2023/09/14 07:33:29;;;;;;;20.02;3.03;;;13.40;99.90;;;;;;5101966;28;20069;-83
2023/09/14 07:35:55;;;;;;;7.75;2.20;;;13.40;99.90;;;;;;5103235;27;20773;-82
2023/09/14 07:38:22;;;;;;;17.67;2.35;;;13.50;99.90;;;;;;5105725;28;20038;-86
2023/09/14 07:40:48;;;;;;;12.23;2.47;;;13.50;99.90;;;;;;5106121;28;20027;-83
2023/09/14 07:43:14;;;;;;;5.85;2.28;;;13.50;99.90;;;;;;5106445;28;20077;-84
2023/09/14 07:45:39;;;;;;;11.45;2.00;;;13.50;99.90;;;;;;5098622;28;20123;-84
2023/09/14 07:48:07;;;;;;;13.05;2.78;;;13.60;99.90;;;;;;5102833;28;20035;-84
2023/09/14 07:50:39;;;;;;;7.78;2.20;;;13.70;99.90;;;;;;5105032;27;20942;-82
2023/09/14 07:53:25;;;;;;;13.48;2.35;;;13.70;99.90;;;;;;5103577;27;20702;-83
2023/09/14 07:55:52;;;;;;;10.45;2.35;;;13.70;99.90;;;;;;5104135;27;20053;-82
2023/09/14 07:58:22;;;;;;;13.52;2.22;;;13.80;99.90;;;;;;5103643;28;20027;-82
2023/09/14 08:00:48;;;;;;;9.05;2.05;;;13.90;99.90;;;;;;5104209;28;20121;-83
2023/09/14 08:03:14;;;;;;;11.98;2.65;;;14.00;99.90;;;;;;5101379;27;20031;-83
2023/09/14 08:05:41;;;;;;;12.43;2.40;;;14.00;99.90;;;;;;5106085;28;20102;-82
2023/09/14 08:08:06;;;;;;;9.68;2.05;;;14.10;99.90;;;;;;5105875;28;20032;-82
2023/09/14 08:10:35;;;;;;;13.63;2.30;;;14.10;99.90;;;;;;5100798;27;20139;-84
2023/09/14 08:13:01;;;;;;;7.45;2.40;;;14.20;99.90;;;;;;5102136;28;20027;-84
2023/09/14 08:15:28;;;;;;;14.60;2.42;;;14.30;99.90;;;;;;5102273;28;21075;-83
2023/09/14 08:17:53;;;;;;;14.93;2.30;;;14.30;99.90;;;;;;5105350;28;20031;-82
2023/09/14 08:20:19;;;;;;;14.90;2.63;;;14.30;99.90;;;;;;5103827;28;20435;-83
2023/09/14 08:22:45;;;;;;;19.35;2.75;;;14.30;99.90;;;;;;5103822;28;20174;-83
2023/09/14 08:25:13;;;;;;;8.63;2.30;;;14.30;99.90;;;;;;5102574;28;20028;-83
2023/09/14 08:27:40;;;;;;;11.95;2.83;;;14.40;99.90;;;;;;5104411;28;20078;-82
2023/09/14 08:30:11;;;;;;;8.07;1.90;;;14.40;99.90;;;;;;5098195;28;20034;-83
2023/09/14 08:32:37;;;;;;;13.38;2.72;;;14.40;99.90;;;;;;5100571;27;20092;-83
2023/09/14 08:35:24;;;;;;;13.80;2.40;;;14.40;99.90;;;;;;5102669;28;20496;-83
2023/09/14 08:37:54;;;;;;;10.00;2.45;;;14.50;99.90;;;;;;5082376;28;20031;-83
2023/09/14 08:40:22;;;;;;;15.85;2.45;;;14.50;99.90;;;;;;5085533;27;20146;-85
2023/09/14 08:42:50;;;;;;;13.95;2.40;;;14.50;99.90;;;;;;5103844;28;20038;-83
2023/09/14 08:45:21;;;;;;;13.00;2.65;;;14.50;99.90;;;;;;5100558;28;20197;-82
2023/09/14 08:47:50;;;;;;;10.77;2.28;;;14.50;99.90;;;;;;5100050;28;20084;-82
2023/09/14 08:50:17;;;;;;;8.57;1.75;;;14.50;99.90;;;;;;5081149;28;20028;-83
2023/09/14 08:52:44;;;;;;;14.32;2.17;;;14.60;99.90;;;;;;5106767;28;20130;-83
2023/09/14 08:55:13;;;;;;;11.27;1.80;;;14.70;99.90;;;;;;5105606;28;20020;-82
2023/09/14 08:57:41;;;;;;;7.97;2.50;;;14.70;99.90;;;;;;5103826;28;20028;-82
2023/09/14 09:00:15;;;;;;;8.38;1.95;;;14.70;99.90;;;;;;5103304;28;20414;-83
2023/09/14 09:02:55;;;;;;;12.85;2.40;;;14.80;99.90;;;;;;5098068;28;20031;-82
2023/09/14 09:05:24;;;;;;;7.47;1.88;;;14.80;99.90;;;;;;5083160;28;20032;-82
2023/09/14 09:07:50;;;;;;;10.93;2.33;;;14.80;99.90;;;;;;5105567;28;20031;-83
2023/09/14 09:10:31;;;;;;;12.43;2.25;;;14.90;99.90;;;;;;5087124;28;20024;-83
2023/09/14 09:12:58;;;;;;;11.30;2.08;;;14.90;99.90;;;;;;5079970;28;20354;-82
2023/09/14 09:15:24;;;;;;;12.85;2.05;;;15.00;99.90;;;;;;5102636;28;20148;-82
2023/09/14 09:18:09;;;;;;;7.43;1.80;;;15.10;99.90;;;;;;5103253;28;20168;-84
2023/09/14 09:20:36;;;;;;;10.07;1.85;;;15.10;99.90;;;;;;5097876;27;20035;-81
2023/09/14 09:23:06;;;;;;;12.95;2.38;;;15.10;99.90;;;;;;5094251;28;20404;-86
2023/09/14 09:25:52;;;;;;;8.48;1.77;;;15.10;99.90;;;;;;5099256;28;20035;-82
2023/09/14 09:28:18;;;;;;;17.25;2.28;;;15.10;99.90;;;;;;5097354;28;20120;-83
2023/09/14 09:30:44;;;;;;;7.65;1.63;;;15.20;99.90;;;;;;5094706;28;20069;-86
2023/09/14 09:33:11;;;;;;;15.50;2.28;;;15.20;99.90;;;;;;5100334;28;20016;-83
2023/09/14 09:35:37;;;;;;;10.80;2.25;;;15.20;99.90;;;;;;5102257;27;20118;-84
2023/09/14 09:38:14;;;;;;;12.43;1.55;;;15.30;99.90;;;;;;5103934;28;20511;-83
2023/09/14 09:40:42;;;;;;;16.90;2.53;;;15.30;99.90;;;;;;5099701;28;20027;-83
2023/09/14 09:43:07;;;;;;;13.93;1.48;;;15.30;99.90;;;;;;5084019;28;20058;-83
2023/09/14 09:45:34;;;;;;;8.88;2.17;;;15.40;99.90;;;;;;5101250;28;20496;-82
2023/09/14 09:48:02;;;;;;;10.23;1.70;;;15.40;99.90;;;;;;5101184;28;20454;-84
2023/09/14 09:50:28;;;;;;;10.38;2.15;;;15.50;99.90;;;;;;5084804;28;20108;-80
2023/09/14 09:52:54;;;;;;;7.13;1.80;;;15.50;99.90;;;;;;5102475;28;20442;-82
2023/09/14 09:55:25;;;;;;;8.60;1.90;;;15.50;99.90;;;;;;5100178;28;20031;-82
2023/09/14 09:57:53;;;;;;;13.57;2.08;;;15.50;99.90;;;;;;5100623;28;20027;-81
2023/09/14 10:00:20;;;;;;;12.45;2.58;;;15.50;99.90;;;;;;5101035;28;20062;-81
2023/09/14 10:02:50;;;;;;;6.40;1.58;;;15.50;99.90;;;;;;5082345;28;20059;-81
2023/09/14 10:05:15;;;;;;;9.75;2.08;;;15.60;99.90;;;;;;5098713;28;20032;-81
2023/09/14 10:07:41;;;;;;;13.88;2.88;;;15.70;99.90;;;;;;5102334;28;20038;-80
2023/09/14 10:10:07;;;;;;;13.15;2.05;;;15.70;99.90;;;;;;5100829;28;20384;-77
2023/09/14 10:12:38;;;;;;;9.70;1.85;;;15.70;99.90;;;;;;5100708;28;20447;-84
2023/09/14 10:15:08;;;;;;;8.95;1.90;;;15.70;99.90;;;;;;5099930;28;20438;-81
2023/09/14 10:17:34;;;;;;;8.68;1.67;;;15.70;99.90;;;;;;5100540;28;20036;-81
2023/09/14 10:20:06;;;;;;;8.80;1.67;;;15.70;99.90;;;;;;5099760;28;20462;-80
2023/09/14 10:22:36;;;;;;;19.30;2.22;;;15.80;99.90;;;;;;5089583;28;20051;-86
2023/09/14 10:25:04;;;;;;;8.95;2.30;;;15.80;99.90;;;;;;5086901;28;20123;-93
2023/09/14 10:27:30;;;;;;;12.07;2.05;;;15.80;99.90;;;;;;5101294;28;20039;-83
2023/09/14 10:29:59;;;;;;;12.82;1.95;;;15.70;99.90;;;;;;5102119;28;20119;-82
2023/09/14 10:32:25;;;;;;;10.63;2.15;;;15.70;99.90;;;;;;5101352;28;20020;-82
2023/09/14 10:34:50;;;;;;;11.35;1.73;;;15.80;99.90;;;;;;5101415;28;20024;-82
2023/09/14 10:37:18;;;;;;;11.02;2.42;;;15.80;99.90;;;;;;5099990;28;20151;-84
2023/09/14 10:39:45;;;;;;;23.20;3.60;;;15.80;99.90;;;;;;5103186;28;20031;-85
2023/09/14 10:42:11;;;;;;;13.80;2.40;;;15.90;99.90;;;;;;5102098;28;20503;-83
2023/09/14 10:44:37;;;;;;;9.05;2.42;;;15.90;99.90;;;;;;5102897;28;20016;-84
2023/09/14 10:47:04;;;;;;;7.22;1.90;;;16.00;99.90;;;;;;5096228;28;20030;-83
2023/09/14 10:49:35;;;;;;;8.90;2.22;;;16.00;99.90;;;;;;5099055;28;20357;-84
2023/09/14 10:52:01;;;;;;;17.88;2.08;;;16.10;99.90;;;;;;5101193;28;20043;-84
2023/09/14 10:54:31;;;;;;;17.55;2.15;;;16.10;99.90;;;;;;5095098;28;20028;-86
2023/09/14 10:57:14;;;;;;;12.82;2.42;;;16.10;99.90;;;;;;5104453;28;20088;-85
2023/09/14 10:59:53;;;;;;;12.27;2.45;;;16.20;99.90;;;;;;5105354;28;20031;-83
2023/09/14 11:02:39;;;;;;;4.28;1.58;;;16.20;99.90;;;;;;5100636;28;20063;-84
2023/09/14 11:05:16;;;;;;;16.25;2.70;;;16.30;99.90;;;;;;5100758;28;20019;-84
2023/09/14 11:07:44;;;;;;;13.73;3.83;;;16.20;99.90;;;;;;5106524;28;20027;-83
2023/09/14 11:10:15;;;;;;;14.82;2.40;;;16.30;99.90;;;;;;5106152;28;20224;-84
2023/09/14 11:12:41;;;;;;;8.63;2.55;;;16.30;99.90;;;;;;5103149;28;21350;-83
2023/09/14 11:15:20;;;;;;;17.52;2.38;;;16.30;99.90;;;;;;5104276;28;20026;-83
2023/09/14 11:17:53;;;;;;;11.45;2.92;;;16.30;99.90;;;;;;5103715;28;20106;-82
2023/09/14 11:20:22;;;;;;;10.05;2.10;;;16.40;99.90;;;;;;5104519;27;20052;-84
2023/09/14 11:22:48;;;;;;;6.25;2.00;;;16.40;99.90;;;;;;5102400;28;20279;-84
2023/09/14 11:25:37;;;;;;;11.27;2.90;;;16.50;99.90;;;;;;5101832;28;20042;-83
2023/09/14 11:28:07;;;;;;;15.95;1.90;;;16.50;99.90;;;;;;5100013;28;20114;-81
2023/09/14 11:30:40;;;;;;;6.68;1.63;;;16.50;99.90;;;;;;5100139;28;20168;-81
2023/09/14 11:33:05;;;;;;;13.57;2.85;;;16.60;99.90;;;;;;5106665;28;20041;-81
2023/09/14 11:35:38;;;;;;;15.43;2.28;;;16.60;99.90;;;;;;5103307;28;20466;-82
2023/09/14 11:38:12;;;;;;;14.68;2.70;;;16.70;99.90;;;;;;5105372;28;20027;-81
2023/09/14 11:40:41;;;;;;;13.45;2.28;;;16.80;99.90;;;;;;5104926;28;20035;-83
2023/09/14 11:43:25;;;;;;;15.25;2.67;;;16.80;99.90;;;;;;5104035;28;20065;-82
2023/09/14 11:46:12;;;;;;;10.10;2.55;;;16.90;99.90;;;;;;5086218;28;20031;-81
2023/09/14 11:48:42;;;;;;;12.20;1.85;;;16.90;99.90;;;;;;5096539;28;20043;-83
2023/09/14 11:51:08;;;;;;;9.80;1.85;;;16.80;99.90;;;;;;5094565;28;20020;-82
2023/09/14 11:53:35;;;;;;;9.10;1.70;;;16.90;99.90;;;;;;5103610;28;20062;-82
2023/09/14 11:56:01;;;;;;;12.85;2.60;;;16.80;99.90;;;;;;5104555;28;20036;-82
2023/09/14 11:58:27;;;;;;;5.13;2.05;;;16.70;99.90;;;;;;5103096;28;20050;-82
2023/09/14 12:00:56;;;;;;;8.75;2.10;;;16.70;99.90;;;;;;5105822;28;20071;-81
2023/09/14 12:03:25;;;;;;;10.52;2.30;;;16.70;99.90;;;;;;5102807;28;20020;-83
2023/09/14 12:05:56;;;;;;;8.20;2.50;;;16.80;99.90;;;;;;5096742;28;20063;-83
2023/09/14 12:08:23;;;;;;;7.57;2.03;;;16.90;99.90;;;;;;5101645;28;20035;-84
2023/09/14 12:10:54;;;;;;;8.18;2.05;;;17.00;99.90;;;;;;5101560;28;20027;-82
2023/09/14 12:13:20;;;;;;;8.25;1.95;;;17.00;99.90;;;;;;5100127;28;20077;-84
2023/09/14 12:15:47;;;;;;;11.00;1.90;;;17.00;99.90;;;;;;5097154;27;20346;-82
2023/09/14 12:18:16;;;;;;;6.93;1.70;;;17.10;99.90;;;;;;5104760;28;20035;-82
2023/09/14 12:20:48;;;;;;;12.77;2.30;;;17.10;99.90;;;;;;5100037;28;20059;-83
2023/09/14 12:23:14;;;;;;;9.43;2.35;;;17.10;99.90;;;;;;5101107;28;20107;-82
2023/09/14 12:25:41;;;;;;;10.57;2.35;;;17.20;99.90;;;;;;5104306;28;20110;-82
2023/09/14 12:28:11;;;;;;;10.27;2.65;;;17.10;99.90;;;;;;5105679;28;20023;-83
2023/09/14 12:30:38;;;;;;;7.32;1.98;;;17.10;99.90;;;;;;5105404;28;20379;-82
2023/09/14 12:33:05;;;;;;;7.78;1.88;;;17.10;99.90;;;;;;5105797;28;20028;-82
2023/09/14 12:35:31;;;;;;;12.80;2.40;;;17.10;99.90;;;;;;5104849;28;20055;-83
2023/09/14 12:38:04;;;;;;;6.85;2.10;;;17.10;99.90;;;;;;5104602;28;20051;-82
2023/09/14 12:40:38;;;;;;;11.25;2.55;;;17.10;99.90;;;;;;5087187;28;20035;-83
2023/09/14 12:43:05;;;;;;;5.22;1.65;;;17.10;99.90;;;;;;5105565;28;20092;-82